createdAt,value
2019-06-15T00:01:01.438Z,10.40
2019-06-15T00:03:31.506Z,11.07
2019-06-15T00:06:05.418Z,9.00
2019-06-15T00:08:39.420Z,11.83
2019-06-15T00:11:07.858Z,10.23
2019-06-15T00:13:36.274Z,8.87
2019-06-15T00:16:04.715Z,10.33
2019-06-15T00:18:39.015Z,9.60
2019-06-15T00:21:12.257Z,11.17
2019-06-15T00:23:46.849Z,10.87
2019-06-15T00:26:21.663Z,8.90
2019-06-15T00:28:55.762Z,10.67
2019-06-15T00:31:26.865Z,10.87
2019-06-15T00:33:58.267Z,10.37
2019-06-15T00:36:26.793Z,9.30
2019-06-15T00:38:58.498Z,9.20
2019-06-15T00:41:28.574Z,10.03
2019-06-15T00:43:56.987Z,10.17
2019-06-15T00:46:27.055Z,9.47
2019-06-15T00:48:58.179Z,9.30
2019-06-15T00:51:27.105Z,9.97
2019-06-15T00:53:58.606Z,9.73
2019-06-15T00:56:27.039Z,9.67
2019-06-15T00:58:55.471Z,9.90
2019-06-15T01:01:26.584Z,10.77
2019-06-15T01:04:00.879Z,9.13
2019-06-15T01:06:31.395Z,10.57
2019-06-15T01:09:02.461Z,12.27
2019-06-15T01:11:33.682Z,9.80
2019-06-15T01:14:05.246Z,10.57
2019-06-15T01:16:36.547Z,10.07
2019-06-15T01:19:04.970Z,10.53
2019-06-15T01:21:34.419Z,10.13
2019-06-15T01:24:16.556Z,12.07
2019-06-15T01:26:36.224Z,10.43
2019-06-15T01:29:10.532Z,11.70
2019-06-15T01:31:39.471Z,10.10
2019-06-15T01:34:10.611Z,10.43
2019-06-15T01:36:39.041Z,11.33
2019-06-15T01:39:07.643Z,10.13
2019-06-15T01:41:38.460Z,10.57
2019-06-15T01:44:06.603Z,9.93
2019-06-15T01:46:35.049Z,11.73
2019-06-15T01:49:06.179Z,11.43
2019-06-15T01:51:36.263Z,10.37
2019-06-15T01:54:06.557Z,10.87
2019-06-15T01:56:40.828Z,12.93
2019-06-15T01:59:06.850Z,11.43
2019-06-15T02:01:35.449Z,11.73
2019-06-15T02:04:04.042Z,11.87
2019-06-15T02:06:36.733Z,11.50
2019-06-15T02:09:09.736Z,11.20
2019-06-15T02:11:38.419Z,11.30
2019-06-15T02:14:06.855Z,11.23
2019-06-15T02:16:37.747Z,11.87
2019-06-15T02:19:06.179Z,10.80
2019-06-15T02:21:34.678Z,12.23
2019-06-15T02:24:04.745Z,11.43
2019-06-15T02:26:38.938Z,11.23
2019-06-15T02:29:10.323Z,12.23
2019-06-15T02:31:41.449Z,14.03
2019-06-15T02:34:12.478Z,11.37
2019-06-15T02:36:40.917Z,12.90
2019-06-15T02:39:11.999Z,12.33
2019-06-15T02:41:40.397Z,15.10
2019-06-15T02:44:13.543Z,12.33
2019-06-15T02:46:39.929Z,11.30
2019-06-15T02:49:08.349Z,12.43
2019-06-15T02:51:39.857Z,12.23
2019-06-15T02:54:17.879Z,12.17
2019-06-15T02:56:57.414Z,11.90
2019-06-15T02:59:33.173Z,12.10
2019-06-15T03:02:03.668Z,12.30
2019-06-15T03:04:40.792Z,13.80
2019-06-15T03:07:16.617Z,13.43
2019-06-15T03:09:45.061Z,13.57
2019-06-15T03:12:13.959Z,13.33
2019-06-15T03:14:43.454Z,12.17
2019-06-15T03:17:17.466Z,12.60
2019-06-15T03:19:45.889Z,13.17
2019-06-15T03:22:16.774Z,13.13
2019-06-15T03:24:47.818Z,14.23
2019-06-15T03:27:18.955Z,13.43
2019-06-15T03:29:47.436Z,12.40
2019-06-15T03:32:17.234Z,12.67
2019-06-15T03:34:51.297Z,12.37
2019-06-15T03:37:21.381Z,13.17
2019-06-15T03:39:58.230Z,14.47
2019-06-15T03:42:32.148Z,12.80
2019-06-15T03:45:00.569Z,13.53
2019-06-15T03:47:36.341Z,13.10
2019-06-15T03:50:07.355Z,14.43
2019-06-15T03:52:40.445Z,15.33
2019-06-15T03:55:12.259Z,12.37
2019-06-15T03:57:46.449Z,12.33
2019-06-15T04:00:40.076Z,11.97
2019-06-15T04:03:16.274Z,13.40
2019-06-15T04:05:45.067Z,13.37
2019-06-15T04:08:14.070Z,14.97
2019-06-15T04:10:42.506Z,13.03
2019-06-15T04:13:10.926Z,15.90
2019-06-15T04:15:39.360Z,12.83
2019-06-15T04:18:13.499Z,12.60
2019-06-15T04:20:41.923Z,12.50
2019-06-15T04:23:16.471Z,13.07
2019-06-15T04:25:44.345Z,12.67
2019-06-15T04:28:12.579Z,12.57
2019-06-15T04:30:41.705Z,13.50
2019-06-15T04:33:14.927Z,14.13
2019-06-15T04:35:43.361Z,13.63
2019-06-15T04:38:31.207Z,13.63
2019-06-15T04:40:54.006Z,13.20
2019-06-15T04:43:25.225Z,13.60
2019-06-15T04:45:58.001Z,13.17
2019-06-15T04:48:34.906Z,13.97
2019-06-15T04:51:04.049Z,13.33
2019-06-15T04:53:35.827Z,13.47
2019-06-15T04:56:05.019Z,14.13
2019-06-15T04:58:36.133Z,14.97
2019-06-15T05:01:08.349Z,14.90
2019-06-15T05:03:39.723Z,14.97
2019-06-15T05:06:13.594Z,15.50
2019-06-15T05:08:42.049Z,14.77
2019-06-15T05:11:13.168Z,14.03
2019-06-15T05:13:42.534Z,14.00
2019-06-15T05:16:12.599Z,14.57
2019-06-15T05:18:47.484Z,14.20
2019-06-15T05:21:21.394Z,14.27
2019-06-15T05:23:56.001Z,14.23
2019-06-15T05:26:25.695Z,15.07
2019-06-15T05:29:03.278Z,15.83
2019-06-15T05:31:35.839Z,14.10
2019-06-15T05:34:04.493Z,13.27
2019-06-15T05:36:32.963Z,13.70
2019-06-15T05:39:05.945Z,12.97
2019-06-15T05:41:35.098Z,11.93
2019-06-15T05:44:05.931Z,13.10
2019-06-15T05:46:36.944Z,13.50
2019-06-15T05:49:17.318Z,13.57
2019-06-15T05:51:48.797Z,13.83
2019-06-15T05:54:18.881Z,13.53
2019-06-15T05:56:48.948Z,13.10
2019-06-15T05:59:19.226Z,14.30
2019-06-15T06:01:50.605Z,14.60
2019-06-15T06:04:20.643Z,14.73
2019-06-15T06:06:49.074Z,14.27
2019-06-15T06:09:20.637Z,13.70
2019-06-15T06:11:55.331Z,14.47
2019-06-15T06:14:23.763Z,12.30
2019-06-15T06:16:55.296Z,9.83
2019-06-15T06:19:26.655Z,13.73
2019-06-15T06:21:58.412Z,11.53
2019-06-15T06:24:31.395Z,9.63
2019-06-15T06:27:01.470Z,12.57
2019-06-15T06:29:34.567Z,9.87
2019-06-15T06:32:09.016Z,18.80
2019-06-15T06:34:38.961Z,12.37
2019-06-15T06:37:16.399Z,9.03
2019-06-15T06:39:44.848Z,9.10
2019-06-15T06:42:13.337Z,8.83
2019-06-15T06:44:45.506Z,11.40
2019-06-15T06:47:14.018Z,10.20
2019-06-15T06:49:43.299Z,8.43
2019-06-15T06:52:11.730Z,9.37
2019-06-15T06:54:48.248Z,7.97
2019-06-15T06:57:16.674Z,9.97
2019-06-15T06:59:45.341Z,10.23
2019-06-15T07:02:14.045Z,8.80
2019-06-15T07:04:44.026Z,10.93
2019-06-15T07:07:12.574Z,7.53
2019-06-15T07:09:40.997Z,7.60
2019-06-15T07:12:11.054Z,7.63
2019-06-15T07:14:43.934Z,7.80
2019-06-15T07:17:19.989Z,11.97
2019-06-15T07:19:48.786Z,8.23
2019-06-15T07:22:20.286Z,8.73
2019-06-15T07:24:51.897Z,8.20
2019-06-15T07:27:24.902Z,8.93
2019-06-15T07:29:58.914Z,7.08
2019-06-15T07:32:27.329Z,6.50
2019-06-15T07:35:02.299Z,5.80
2019-06-15T07:37:42.055Z,6.10
2019-06-15T07:40:10.946Z,7.15
2019-06-15T07:42:39.758Z,6.83
2019-06-15T07:45:53.074Z,5.30
2019-06-15T07:48:43.639Z,8.03
2019-06-15T07:51:20.473Z,6.75
2019-06-15T07:53:52.077Z,4.92
2019-06-15T07:56:23.604Z,5.92
2019-06-15T07:58:54.957Z,5.53
2019-06-15T08:01:26.108Z,6.67
2019-06-15T08:03:55.270Z,5.78
2019-06-15T08:06:28.083Z,4.65
2019-06-15T08:08:56.508Z,6.90
2019-06-15T08:11:30.964Z,7.30
2019-06-15T08:14:05.105Z,4.03
2019-06-15T08:16:39.218Z,5.70
2019-06-15T08:19:09.282Z,5.20
2019-06-15T08:21:37.722Z,6.20
2019-06-15T08:24:08.646Z,6.50
2019-06-15T08:26:37.061Z,6.90
2019-06-15T08:29:16.286Z,8.10
2019-06-15T08:31:46.076Z,5.00
2019-06-15T08:34:16.125Z,6.97
2019-06-15T08:36:44.537Z,6.08
2019-06-15T08:39:12.971Z,6.95
2019-06-15T08:41:45.705Z,5.25
2019-06-15T08:44:17.326Z,5.35
2019-06-15T08:46:53.943Z,6.35
2019-06-15T08:49:24.180Z,7.08
2019-06-15T08:51:58.611Z,8.65
2019-06-15T08:54:29.708Z,5.62
2019-06-15T08:57:04.223Z,5.03
2019-06-15T08:59:34.939Z,4.70
2019-06-15T09:02:07.972Z,7.80
2019-06-15T09:04:42.139Z,6.95
2019-06-15T09:07:16.581Z,6.25
2019-06-15T09:09:45.054Z,5.35
2019-06-15T09:12:16.527Z,4.40
2019-06-15T09:14:44.949Z,5.92
2019-06-15T09:17:28.321Z,6.30
2019-06-15T09:19:56.758Z,5.72
2019-06-15T09:22:26.805Z,5.12
2019-06-15T09:24:57.260Z,8.33
2019-06-15T09:27:25.679Z,5.05
2019-06-15T09:29:57.370Z,6.15
2019-06-15T09:32:30.280Z,4.78
2019-06-15T09:35:04.031Z,5.45
2019-06-15T09:37:35.086Z,6.17
2019-06-15T09:40:24.578Z,5.17
2019-06-15T09:42:58.787Z,7.28
2019-06-15T09:45:32.659Z,5.25
2019-06-15T09:47:58.997Z,5.40
2019-06-15T09:50:27.603Z,6.12
2019-06-15T09:52:56.033Z,5.08
2019-06-15T09:55:27.141Z,5.20
2019-06-15T09:57:58.445Z,5.25
2019-06-15T10:00:27.018Z,7.28
2019-06-15T10:02:57.065Z,5.23
2019-06-15T10:05:25.498Z,3.35
2019-06-15T10:07:53.934Z,4.92
2019-06-15T10:10:22.367Z,4.75
2019-06-15T10:12:50.786Z,4.00
2019-06-15T10:15:20.917Z,5.55
2019-06-15T10:17:49.337Z,4.20
2019-06-15T10:20:20.738Z,5.15
2019-06-15T10:22:49.158Z,5.00
2019-06-15T10:25:17.875Z,5.35
2019-06-15T10:28:04.089Z,4.78
2019-06-15T10:30:35.347Z,7.15
2019-06-15T10:33:08.483Z,4.97
2019-06-15T10:35:36.925Z,3.15
2019-06-15T10:38:05.349Z,5.65
2019-06-15T10:40:39.589Z,4.67
2019-06-15T10:43:10.926Z,3.98
2019-06-15T10:45:42.034Z,3.52
2019-06-15T10:48:10.458Z,4.15
2019-06-15T10:50:52.933Z,5.42
2019-06-15T10:53:33.154Z,4.37
2019-06-15T10:56:03.242Z,5.12
2019-06-15T10:58:35.005Z,5.22
2019-06-15T11:01:06.237Z,3.90
2019-06-15T11:03:35.981Z,3.92
2019-06-15T11:06:04.424Z,3.97
2019-06-15T11:08:36.063Z,4.75
2019-06-15T11:11:13.019Z,4.58
2019-06-15T11:13:41.434Z,3.55
2019-06-15T11:16:22.251Z,3.80
2019-06-15T11:18:57.262Z,3.70
2019-06-15T11:21:25.693Z,3.87
2019-06-15T11:23:57.170Z,3.83
2019-06-15T11:26:25.622Z,5.10
2019-06-15T11:28:54.122Z,5.42
2019-06-15T11:31:37.210Z,4.27
2019-06-15T11:34:10.960Z,3.03
2019-06-15T11:36:39.404Z,2.87
2019-06-15T11:39:08.178Z,3.90
2019-06-15T11:41:36.673Z,5.97
2019-06-15T11:44:05.453Z,3.63
2019-06-15T11:46:35.186Z,3.33
2019-06-15T11:49:04.074Z,3.50
2019-06-15T11:51:35.665Z,4.47
2019-06-15T11:54:04.077Z,2.93
2019-06-15T11:56:35.183Z,4.37
2019-06-15T11:59:03.610Z,4.57
2019-06-15T12:01:32.039Z,3.47
2019-06-15T12:04:05.339Z,3.27
2019-06-15T12:06:34.736Z,3.70
2019-06-15T12:09:06.973Z,4.10
2019-06-15T12:11:38.767Z,3.43
2019-06-15T12:14:10.443Z,3.90
2019-06-15T12:16:38.875Z,5.03
2019-06-15T12:19:10.370Z,2.43
2019-06-15T12:21:41.880Z,5.03
2019-06-15T12:24:11.971Z,2.57
2019-06-15T12:26:42.394Z,2.50
2019-06-15T12:29:19.468Z,4.93
2019-06-15T12:31:47.893Z,2.17
2019-06-15T12:34:22.326Z,4.30
2019-06-15T12:36:52.294Z,2.43
2019-06-15T12:39:27.747Z,5.33
2019-06-15T12:41:53.523Z,2.17
2019-06-15T12:44:22.009Z,4.37
2019-06-15T12:46:50.717Z,4.03
2019-06-15T12:49:22.174Z,3.30
2019-06-15T12:51:50.665Z,5.07
2019-06-15T12:54:19.081Z,7.23
2019-06-15T12:56:47.506Z,4.07
2019-06-15T12:59:18.875Z,4.27
2019-06-15T13:01:47.621Z,4.73
2019-06-15T13:04:16.101Z,2.87
2019-06-15T13:06:45.857Z,3.13
2019-06-15T13:09:18.497Z,3.57
2019-06-15T13:11:49.934Z,2.17
2019-06-15T13:14:20.004Z,4.23
2019-06-15T13:16:48.430Z,4.57
2019-06-15T13:19:23.894Z,3.77
2019-06-15T13:21:52.318Z,4.27
2019-06-15T13:24:22.673Z,3.27
2019-06-15T13:26:51.109Z,3.13
2019-06-15T13:29:19.524Z,3.70
2019-06-15T13:31:49.596Z,4.80
2019-06-15T13:34:18.010Z,5.93
2019-06-15T13:36:58.176Z,3.00
2019-06-15T13:39:32.190Z,7.93
2019-06-15T13:42:06.980Z,7.47
2019-06-15T13:44:36.423Z,4.43
2019-06-15T13:47:10.605Z,4.13
2019-06-15T13:49:47.645Z,3.03
2019-06-15T13:52:20.433Z,2.70
2019-06-15T13:54:51.604Z,2.57
2019-06-15T13:57:22.718Z,3.77
2019-06-15T13:59:57.473Z,3.43
2019-06-15T14:02:25.918Z,3.87
2019-06-15T14:04:54.321Z,4.47
2019-06-15T14:07:24.797Z,2.90
2019-06-15T14:09:53.219Z,4.23
2019-06-15T14:12:29.155Z,3.87
2019-06-15T14:15:00.818Z,3.60
2019-06-15T14:17:32.245Z,2.83
2019-06-15T14:20:01.947Z,3.00
2019-06-15T14:22:30.373Z,3.27
2019-06-15T14:25:07.761Z,3.47
2019-06-15T14:27:39.111Z,3.50
2019-06-15T14:30:16.805Z,3.63
2019-06-15T14:32:48.301Z,4.47
2019-06-15T14:35:20.005Z,4.10
2019-06-15T14:37:51.374Z,2.57
2019-06-15T14:40:27.987Z,2.77
2019-06-15T14:42:59.140Z,2.83
2019-06-15T14:45:27.553Z,3.17
2019-06-15T14:47:56.805Z,2.40
2019-06-15T14:50:27.962Z,4.87
2019-06-15T14:52:56.388Z,3.17
2019-06-15T14:55:32.907Z,3.33
2019-06-15T14:58:02.618Z,2.77
2019-06-15T15:00:36.999Z,2.40
2019-06-15T15:03:06.898Z,3.00
2019-06-15T15:05:38.231Z,3.37
2019-06-15T15:08:09.774Z,4.27
2019-06-15T15:10:38.181Z,4.70
2019-06-15T15:13:11.999Z,2.70
2019-06-15T15:15:43.186Z,2.80
2019-06-15T15:18:13.327Z,4.33
2019-06-15T15:20:44.427Z,3.80
2019-06-15T15:23:12.861Z,2.07
2019-06-15T15:25:43.944Z,2.23
2019-06-15T15:28:18.082Z,2.47
2019-06-15T15:30:51.187Z,2.73
2019-06-15T15:33:19.614Z,1.97
2019-06-15T15:35:49.577Z,4.80
2019-06-15T15:38:22.774Z,3.63
2019-06-15T15:40:56.011Z,3.23
2019-06-15T15:43:26.986Z,4.20
2019-06-15T15:45:56.404Z,2.27
2019-06-15T15:48:27.683Z,1.80
2019-06-15T15:51:09.686Z,2.50
2019-06-15T15:53:46.671Z,2.50
2019-06-15T15:56:17.119Z,2.07
2019-06-15T15:58:56.189Z,2.37
2019-06-15T16:01:39.758Z,1.47
2019-06-15T16:04:11.191Z,2.70
2019-06-15T16:06:39.608Z,1.70
2019-06-15T16:09:08.821Z,2.87
2019-06-15T16:11:46.374Z,2.23
2019-06-15T16:14:16.432Z,1.30
2019-06-15T16:16:50.085Z,2.27
2019-06-15T16:19:18.502Z,2.57
2019-06-15T16:21:48.566Z,1.67
2019-06-15T16:24:19.894Z,1.80
2019-06-15T16:26:50.894Z,1.60
2019-06-15T16:29:25.547Z,1.97
2019-06-15T16:31:57.066Z,1.67
2019-06-15T16:34:32.870Z,3.27
2019-06-15T16:37:06.413Z,2.40
2019-06-15T16:39:36.121Z,1.83
2019-06-15T16:42:13.251Z,1.70
2019-06-15T16:44:41.671Z,2.20
2019-06-15T16:47:10.085Z,1.70
2019-06-15T16:49:41.486Z,4.40
2019-06-15T16:52:27.606Z,1.53
2019-06-15T16:54:59.049Z,1.80
2019-06-15T16:57:29.106Z,2.73
2019-06-15T16:59:57.526Z,1.60
2019-06-15T17:02:28.804Z,1.40
2019-06-15T17:04:58.862Z,3.00
2019-06-15T17:07:28.916Z,1.83
2019-06-15T17:09:57.354Z,4.27
2019-06-15T17:12:28.436Z,1.50
2019-06-15T17:14:56.866Z,2.57
2019-06-15T17:17:26.622Z,2.30
2019-06-15T17:19:58.191Z,2.47
2019-06-15T17:22:29.442Z,2.80
2019-06-15T17:25:05.970Z,1.40
2019-06-15T17:27:32.484Z,2.53
2019-06-15T17:30:01.255Z,2.90
2019-06-15T17:32:36.761Z,1.70
2019-06-15T17:35:07.844Z,1.90
2019-06-15T17:37:42.523Z,2.03
2019-06-15T17:40:20.993Z,1.60
2019-06-15T17:42:51.056Z,1.63
2019-06-15T17:45:23.643Z,1.73
2019-06-15T17:47:57.737Z,1.93
2019-06-15T17:50:41.543Z,1.40
2019-06-15T17:53:18.997Z,1.50
2019-06-15T17:55:47.427Z,1.47
2019-06-15T17:58:23.193Z,1.40
2019-06-15T18:00:54.303Z,2.37
2019-06-15T18:03:27.119Z,1.30
2019-06-15T18:06:00.064Z,2.50
2019-06-15T18:08:33.125Z,1.40
2019-06-15T18:11:10.476Z,1.50
2019-06-15T18:13:47.225Z,1.93
2019-06-15T18:16:17.849Z,1.50
2019-06-15T18:18:49.683Z,1.50
2019-06-15T18:21:40.916Z,1.30
2019-06-15T18:24:29.917Z,1.73
2019-06-15T18:26:58.346Z,2.03
2019-06-15T18:29:51.821Z,1.57
2019-06-15T18:32:21.890Z,1.93
2019-06-15T18:35:42.246Z,1.60
2019-06-15T18:38:14.722Z,3.20
2019-06-15T18:40:43.137Z,1.93
2019-06-15T18:43:13.185Z,1.83
2019-06-15T18:45:47.604Z,2.63
2019-06-15T18:48:21.590Z,2.13
2019-06-15T18:50:51.670Z,2.37
2019-06-15T18:53:22.051Z,2.13
2019-06-15T18:55:53.422Z,1.60
2019-06-15T18:58:56.865Z,1.60
2019-06-15T19:01:33.051Z,1.93
2019-06-15T19:03:58.885Z,1.77
2019-06-15T19:06:30.263Z,2.13
2019-06-15T19:08:58.677Z,1.70
2019-06-15T19:11:32.901Z,2.17
2019-06-15T19:14:01.326Z,1.80
2019-06-15T19:16:32.922Z,1.60
2019-06-15T19:19:02.983Z,1.70
2019-06-15T19:21:33.853Z,3.90
2019-06-15T19:24:07.287Z,2.97
2019-06-15T19:26:39.666Z,3.60
2019-06-15T19:29:17.258Z,3.63
2019-06-15T19:31:47.786Z,1.60
2019-06-15T19:34:16.824Z,3.83
2019-06-15T19:36:46.879Z,2.03
2019-06-15T19:39:18.150Z,2.30
2019-06-15T19:42:11.896Z,1.83
2019-06-15T19:44:45.582Z,2.23
2019-06-15T19:47:16.171Z,2.17
2019-06-15T19:49:46.565Z,2.30
2019-06-15T19:52:20.297Z,3.37
2019-06-15T19:55:09.681Z,2.80
2019-06-15T19:57:38.277Z,4.07
2019-06-15T20:00:10.198Z,7.27
2019-06-15T20:02:41.467Z,4.37
2019-06-15T20:05:13.003Z,5.27
2019-06-15T20:07:43.193Z,3.70
2019-06-15T20:10:20.282Z,3.63
2019-06-15T20:12:50.349Z,3.53
2019-06-15T20:15:22.193Z,3.90
2019-06-15T20:17:56.826Z,6.20
2019-06-15T20:20:30.891Z,3.13
2019-06-15T20:23:00.402Z,8.77
2019-06-15T20:25:32.140Z,6.23
2019-06-15T20:28:16.231Z,3.67
2019-06-15T20:30:47.098Z,4.03
2019-06-15T20:33:18.520Z,2.67
2019-06-15T20:35:50.217Z,2.20
2019-06-15T20:38:26.724Z,2.20
2019-06-15T20:40:57.521Z,2.90
2019-06-15T20:43:27.390Z,4.33
2019-06-15T20:45:57.278Z,3.30
2019-06-15T20:48:27.360Z,2.83
2019-06-15T20:50:57.315Z,3.93
2019-06-15T20:53:26.563Z,3.60
2019-06-15T20:55:57.974Z,4.00
2019-06-15T20:58:36.981Z,2.40
2019-06-15T21:01:07.075Z,3.00
2019-06-15T21:03:38.513Z,2.90
2019-06-15T21:06:16.844Z,2.60
2019-06-15T21:08:40.932Z,3.37
2019-06-15T21:11:21.030Z,2.77
2019-06-15T21:13:52.379Z,4.43
2019-06-15T21:16:20.801Z,2.70
2019-06-15T21:18:50.970Z,2.07
2019-06-15T21:21:20.332Z,2.40
2019-06-15T21:23:56.968Z,5.00
2019-06-15T21:26:30.974Z,2.70
2019-06-15T21:28:59.393Z,4.70
2019-06-15T21:31:32.284Z,2.43
2019-06-15T21:34:00.699Z,2.20
2019-06-15T21:36:29.407Z,4.00
2019-06-15T21:39:06.822Z,2.43
2019-06-15T21:41:36.740Z,2.83
2019-06-15T21:44:06.347Z,2.73
2019-06-15T21:46:36.174Z,3.90
2019-06-15T21:49:07.164Z,3.87
2019-06-15T21:51:38.788Z,2.10
2019-06-15T21:54:07.211Z,2.43
2019-06-15T21:56:41.313Z,3.63
2019-06-15T21:59:12.653Z,2.93
2019-06-15T22:01:41.865Z,2.70
2019-06-15T22:04:11.987Z,2.93
2019-06-15T22:06:43.486Z,2.73
2019-06-15T22:09:20.512Z,2.63
2019-06-15T22:11:46.994Z,3.50
2019-06-15T22:14:17.126Z,2.97
2019-06-15T22:16:49.033Z,3.13
2019-06-15T22:19:19.081Z,2.93
2019-06-15T22:21:53.209Z,4.07
2019-06-15T22:24:26.626Z,2.50
2019-06-15T22:26:56.116Z,2.80
2019-06-15T22:29:27.389Z,3.00
2019-06-15T22:31:57.704Z,2.33
2019-06-15T22:34:26.393Z,3.50
2019-06-15T22:36:57.773Z,3.30
2019-06-15T22:39:26.877Z,2.67
2019-06-15T22:41:58.402Z,2.60
2019-06-15T22:44:27.785Z,4.33
2019-06-15T22:46:58.161Z,2.50
2019-06-15T22:49:26.593Z,3.27
2019-06-15T22:51:56.890Z,3.07
2019-06-15T22:54:26.094Z,2.80
2019-06-15T22:56:56.611Z,2.67
2019-06-15T22:59:31.141Z,3.17
2019-06-15T23:01:59.572Z,2.20
2019-06-15T23:04:30.663Z,2.93
2019-06-15T23:06:59.073Z,2.17
2019-06-15T23:09:36.101Z,2.33
2019-06-15T23:12:13.386Z,2.23
2019-06-15T23:14:46.546Z,3.97
2019-06-15T23:17:16.522Z,2.43
2019-06-15T23:19:46.128Z,2.17
2019-06-15T23:22:20.242Z,2.57
2019-06-15T23:24:52.235Z,4.30
2019-06-15T23:27:23.559Z,2.33
2019-06-15T23:29:52.047Z,2.80
2019-06-15T23:32:20.962Z,4.40
2019-06-15T23:34:49.476Z,4.50
2019-06-15T23:37:19.615Z,2.57
2019-06-15T23:40:10.334Z,2.67
2019-06-15T23:42:38.816Z,2.90
2019-06-15T23:45:13.198Z,3.17
2019-06-15T23:47:47.473Z,3.87
2019-06-15T23:50:18.454Z,3.50
2019-06-15T23:52:53.058Z,4.17
2019-06-15T23:55:26.836Z,2.63
2019-06-15T23:57:59.354Z,3.10
